Time;durP1;ratioP1;P1;durP2;ratioP2;P2;SDS_P1;SDS_P2;PMS_P1;PMS_P2;Temp;Humidity;BMP_temperature;BMP_pressure;BME280_temperature;BME280_humidity;BME280_pressure;Samples;Min_cycle;Max_cycle;Signal;HPM_P1;HPM_P2
2024/01/18 00:01:33;;;;;;;3.80;2.40;;;;;;;12.48;91.68;96647.56;5087745;28;20027;-77
2024/01/18 00:03:59;;;;;;;6.10;2.80;;;;;;;12.37;91.21;96639.56;5065631;28;20031;-76
2024/01/18 00:06:25;;;;;;;7.00;2.97;;;;;;;12.32;91.50;96649.81;5074578;28;20165;-77
2024/01/18 00:08:51;;;;;;;3.97;2.28;;;;;;;12.24;91.47;96644.22;5062122;28;20507;-77
2024/01/18 00:11:17;;;;;;;4.45;3.00;;;;;;;12.16;92.40;96644.03;5076420;28;20058;-77
2024/01/18 00:13:44;;;;;;;4.13;2.88;;;;;;;12.07;92.63;96641.25;5062643;28;20036;-77
2024/01/18 00:16:09;;;;;;;6.13;2.53;;;;;;;11.93;93.47;96635.19;5075688;28;20468;-77
2024/01/18 00:18:35;;;;;;;5.57;2.83;;;;;;;11.91;94.32;96625.56;5082152;28;20110;-78
2024/01/18 00:21:01;;;;;;;4.78;2.60;;;;;;;12.00;94.55;96640.91;5061565;28;20024;-78
2024/01/18 00:23:28;;;;;;;6.43;3.50;;;;;;;11.92;94.67;96646.91;5079500;28;20502;-75
2024/01/18 00:25:53;;;;;;;4.40;2.63;;;;;;;11.93;95.19;96635.19;5073953;28;20072;-76
2024/01/18 00:28:19;;;;;;;4.50;2.47;;;;;;;11.91;96.41;96613.03;5084314;28;20445;-76
2024/01/18 00:30:45;;;;;;;5.28;2.95;;;;;;;12.04;96.32;96631.63;5081247;28;20040;-76
2024/01/18 00:33:10;;;;;;;5.95;2.55;;;;;;;12.02;95.94;96617.53;5078853;28;20031;-77
2024/01/18 00:35:36;;;;;;;4.63;2.95;;;;;;;12.10;96.50;96623.09;5067796;28;20048;-77
2024/01/18 00:38:02;;;;;;;4.30;2.08;;;;;;;12.07;95.99;96620.66;5078622;28;20019;-77
2024/01/18 00:40:28;;;;;;;5.60;2.58;;;;;;;12.08;96.27;96626.88;5073582;28;20031;-77
2024/01/18 00:42:54;;;;;;;3.58;2.50;;;;;;;12.10;96.72;96635.63;5095754;28;20054;-77
2024/01/18 00:45:20;;;;;;;3.38;2.45;;;;;;;12.10;97.53;96631.13;5070276;28;20082;-77
2024/01/18 00:47:45;;;;;;;5.13;2.88;;;;;;;12.16;96.80;96625.25;5075918;28;20059;-77
2024/01/18 00:50:11;;;;;;;4.90;2.50;;;;;;;12.25;96.85;96632.53;5091210;28;20106;-77
2024/01/18 00:52:36;;;;;;;3.75;2.45;;;;;;;12.21;95.48;96617.66;5073593;28;20036;-77
2024/01/18 00:55:02;;;;;;;5.90;3.20;;;;;;;12.21;95.06;96631.06;5075461;28;20039;-77
2024/01/18 00:57:28;;;;;;;4.95;2.80;;;;;;;12.13;95.72;96624.66;5092699;28;20417;-77
2024/01/18 00:59:54;;;;;;;5.88;3.15;;;;;;;12.11;97.03;96623.94;5087391;28;20035;-76
2024/01/18 01:02:20;;;;;;;9.07;3.47;;;;;;;12.13;96.91;96619.28;5070174;28;20027;-78
2024/01/18 01:04:46;;;;;;;5.03;3.03;;;;;;;12.14;96.48;96610.28;5067382;28;20504;-76
2024/01/18 01:07:11;;;;;;;5.07;2.75;;;;;;;12.16;96.74;96601.13;5113393;28;20027;-77
2024/01/18 01:09:37;;;;;;;4.70;2.70;;;;;;;12.08;97.70;96579.50;5087723;28;20059;-77
2024/01/18 01:12:03;;;;;;;3.80;2.45;;;;;;;12.20;96.49;96594.53;5074397;28;20035;-77
2024/01/18 01:14:29;;;;;;;3.55;2.42;;;;;;;12.15;97.78;96580.66;5089601;28;20489;-78
2024/01/18 01:16:55;;;;;;;4.20;2.65;;;;;;;12.25;97.14;96596.81;5065792;28;20028;-77
2024/01/18 01:19:21;;;;;;;4.18;2.45;;;;;;;12.13;97.82;96563.84;5092675;28;20102;-76
2024/01/18 01:21:46;;;;;;;4.55;2.72;;;;;;;12.26;96.56;96583.31;5064058;28;20468;-77
2024/01/18 01:24:12;;;;;;;6.63;3.08;;;;;;;12.22;97.03;96587.22;5076851;28;20028;-76
2024/01/18 01:26:38;;;;;;;9.95;3.30;;;;;;;12.07;97.16;96566.19;5077928;28;20035;-77
2024/01/18 01:29:05;;;;;;;5.65;3.17;;;;;;;12.19;98.63;96576.75;5086326;28;20514;-77
2024/01/18 01:31:30;;;;;;;6.68;3.40;;;;;;;12.22;98.94;96576.50;5080784;28;20020;-77
2024/01/18 01:33:56;;;;;;;4.45;2.80;;;;;;;12.26;98.37;96569.91;5100727;28;20027;-77
2024/01/18 01:36:22;;;;;;;7.03;3.25;;;;;;;12.27;97.83;96562.72;5080882;28;20027;-77
2024/01/18 01:38:48;;;;;;;3.85;1.92;;;;;;;12.29;97.78;96558.91;5064182;28;20478;-77
2024/01/18 01:41:14;;;;;;;4.35;2.70;;;;;;;12.40;99.82;96564.22;5085931;28;20395;-77
2024/01/18 01:44:00;;;;;;;5.93;2.70;;;;;;;12.54;100.00;96559.50;5077559;28;20039;-77
2024/01/18 01:46:26;;;;;;;3.83;2.15;;;;;;;12.65;100.00;96541.50;5058134;28;20479;-77
2024/01/18 01:49:02;;;;;;;5.32;2.30;;;;;;;12.63;98.79;96532.75;5074192;28;20127;-77
2024/01/18 01:51:35;;;;;;;4.03;2.80;;;;;;;12.73;99.54;96532.81;5066938;28;20036;-77
2024/01/18 01:54:02;;;;;;;3.72;2.60;;;;;;;12.81;99.10;96527.59;5077512;28;20023;-78
2024/01/18 01:56:28;;;;;;;4.20;2.30;;;;;;;12.81;98.64;96515.03;5091455;28;20034;-77
2024/01/18 01:58:54;;;;;;;4.32;2.60;;;;;;;12.82;100.00;96521.28;5094696;28;20027;-76
2024/01/18 02:01:19;;;;;;;3.92;2.72;;;;;;;12.93;100.00;96519.34;5076188;28;20023;-77
2024/01/18 02:03:45;;;;;;;5.05;2.97;;;;;;;12.91;100.00;96531.19;5077144;28;20031;-76
2024/01/18 02:06:11;;;;;;;6.32;2.65;;;;;;;13.01;100.00;96542.84;5077020;28;20491;-77
2024/01/18 02:08:37;;;;;;;6.97;2.40;;;;;;;13.01;100.00;96526.72;5076772;28;20038;-76
2024/01/18 02:11:03;;;;;;;4.65;2.65;;;;;;;12.91;100.00;96526.69;5094012;28;20028;-77
2024/01/18 02:13:30;;;;;;;4.68;2.20;;;;;;;12.80;100.00;96512.47;5076940;28;20104;-77
2024/01/18 02:15:56;;;;;;;3.78;2.22;;;;;;;12.88;100.00;96528.78;5076890;28;20024;-77
2024/01/18 02:18:21;;;;;;;4.53;2.80;;;;;;;12.74;100.00;96518.38;5065512;28;20023;-77
2024/01/18 02:20:47;;;;;;;5.65;1.92;;;;;;;12.81;100.00;96509.69;5064583;28;20408;-77
2024/01/18 02:23:12;;;;;;;2.53;1.75;;;;;;;12.83;100.00;96506.84;5056992;28;20020;-76
2024/01/18 02:25:38;;;;;;;3.90;2.38;;;;;;;12.87;100.00;96537.81;5069000;28;20412;-77
2024/01/18 02:28:04;;;;;;;4.38;2.00;;;;;;;12.80;100.00;96523.22;5073473;28;20040;-76
2024/01/18 02:30:29;;;;;;;3.75;2.13;;;;;;;12.79;100.00;96527.75;5072862;28;20052;-78
2024/01/18 02:32:55;;;;;;;3.22;2.13;;;;;;;12.74;100.00;96537.16;5069695;28;20186;-78
2024/01/18 02:35:21;;;;;;;5.28;1.98;;;;;;;12.67;100.00;96514.56;5068467;28;20031;-77
2024/01/18 02:37:46;;;;;;;5.10;2.42;;;;;;;12.73;100.00;96533.66;5063471;28;20066;-77
2024/01/18 02:40:12;;;;;;;4.43;2.35;;;;;;;12.69;100.00;96534.03;5064769;28;20495;-78
2024/01/18 02:42:38;;;;;;;6.47;2.45;;;;;;;12.59;100.00;96509.84;5063674;28;20089;-77
2024/01/18 02:45:05;;;;;;;2.83;2.13;;;;;;;12.60;100.00;96521.44;5077881;28;20036;-75
2024/01/18 02:47:30;;;;;;;3.75;2.10;;;;;;;12.69;100.00;96531.34;5076393;28;20055;-73
2024/01/18 02:49:56;;;;;;;2.95;2.05;;;;;;;12.63;100.00;96521.16;5068037;28;20023;-76
2024/01/18 02:52:22;;;;;;;2.08;1.55;;;;;;;12.60;100.00;96506.19;5093630;28;20098;-76
2024/01/18 02:54:49;;;;;;;2.60;1.90;;;;;;;12.62;100.00;96524.81;5068438;28;20041;-75
2024/01/18 02:57:14;;;;;;;4.15;2.22;;;;;;;12.59;100.00;96503.63;5076322;28;20031;-76
2024/01/18 02:59:40;;;;;;;3.88;2.15;;;;;;;12.62;100.00;96487.25;5073649;28;20443;-76
2024/01/18 03:02:06;;;;;;;4.15;2.42;;;;;;;12.65;100.00;96503.09;5089130;28;20023;-76
2024/01/18 03:04:31;;;;;;;6.03;2.53;;;;;;;12.69;100.00;96509.91;5076459;28;20032;-74
2024/01/18 03:06:57;;;;;;;4.00;2.63;;;;;;;12.65;100.00;96487.84;5065451;28;20109;-75
2024/01/18 03:09:23;;;;;;;4.85;2.58;;;;;;;12.73;100.00;96493.41;5084116;28;20490;-76
2024/01/18 03:11:49;;;;;;;2.67;1.90;;;;;;;12.75;100.00;96485.22;5067416;28;20022;-75
2024/01/18 03:14:16;;;;;;;3.08;2.00;;;;;;;12.68;100.00;96492.94;5073755;28;20024;-76
2024/01/18 03:16:45;;;;;;;5.43;2.28;;;;;;;12.74;100.00;96483.50;5089987;28;20070;-76
2024/01/18 03:19:10;;;;;;;5.95;2.70;;;;;;;12.74;100.00;96481.66;5071791;28;20027;-76
2024/01/18 03:21:37;;;;;;;6.20;2.83;;;;;;;12.70;100.00;96480.25;5076133;28;20019;-77
2024/01/18 03:24:03;;;;;;;4.38;1.90;;;;;;;12.72;100.00;96480.13;5070759;28;20032;-75
2024/01/18 03:26:30;;;;;;;3.03;1.98;;;;;;;12.73;100.00;96458.53;5057200;28;20122;-75
2024/01/18 03:28:56;;;;;;;4.45;2.78;;;;;;;12.73;100.00;96442.44;5077800;28;20547;-76
2024/01/18 03:31:21;;;;;;;4.53;2.58;;;;;;;12.71;100.00;96440.84;5074578;28;20048;-76
2024/01/18 03:33:47;;;;;;;4.25;2.17;;;;;;;12.68;100.00;96412.47;5067663;28;20388;-77
2024/01/18 03:36:13;;;;;;;3.50;2.20;;;;;;;12.72;100.00;96391.56;5080106;28;20020;-76
2024/01/18 03:38:38;;;;;;;3.05;1.88;;;;;;;12.75;100.00;96334.94;5075524;28;20038;-77
2024/01/18 03:41:04;;;;;;;2.60;2.00;;;;;;;12.93;100.00;96397.69;5080099;28;20027;-76
2024/01/18 03:43:29;;;;;;;3.00;2.00;;;;;;;12.93;100.00;96400.38;5064208;28;20043;-76
2024/01/18 03:45:55;;;;;;;3.78;1.73;;;;;;;13.04;100.00;96398.44;5068930;28;20039;-76
2024/01/18 03:48:21;;;;;;;1.95;1.48;;;;;;;13.11;100.00;96408.66;5075713;28;20027;-77
2024/01/18 03:50:46;;;;;;;2.30;1.23;;;;;;;13.19;100.00;96431.16;5063072;28;20040;-76
2024/01/18 03:53:12;;;;;;;3.00;1.90;;;;;;;13.23;100.00;96448.66;5088471;28;20110;-76
2024/01/18 03:55:41;;;;;;;2.45;1.80;;;;;;;13.23;100.00;96445.97;5071866;28;20073;-76
2024/01/18 03:58:06;;;;;;;2.78;2.25;;;;;;;13.29;100.00;96460.72;5085826;28;20472;-76
2024/01/18 04:00:32;;;;;;;2.53;1.40;;;;;;;13.33;100.00;96467.50;5079629;28;20484;-76
2024/01/18 04:02:58;;;;;;;3.78;1.77;;;;;;;13.31;100.00;96458.72;5064681;28;20163;-77
2024/01/18 04:05:23;;;;;;;2.85;1.88;;;;;;;13.30;100.00;96449.81;5079781;28;20015;-76
2024/01/18 04:07:49;;;;;;;4.97;2.13;;;;;;;13.29;100.00;96437.38;5068482;28;20514;-76
2024/01/18 04:10:15;;;;;;;2.20;1.75;;;;;;;13.23;100.00;96404.84;5073948;28;20119;-77
2024/01/18 04:12:40;;;;;;;2.90;2.08;;;;;;;13.21;100.00;96418.44;5089509;28;20024;-76
2024/01/18 04:15:06;;;;;;;3.60;2.20;;;;;;;13.22;100.00;96416.59;5093274;28;20456;-76
2024/01/18 04:17:32;;;;;;;3.38;2.10;;;;;;;13.27;100.00;96403.59;5093457;28;20034;-75
2024/01/18 04:19:57;;;;;;;4.50;1.90;;;;;;;13.28;100.00;96403.47;5067466;28;20080;-75
2024/01/18 04:22:23;;;;;;;3.50;2.00;;;;;;;13.32;100.00;96380.69;5073936;28;20031;-76
2024/01/18 04:24:49;;;;;;;2.30;1.50;;;;;;;13.31;100.00;96413.94;5077258;28;20473;-76
2024/01/18 04:27:15;;;;;;;2.55;1.38;;;;;;;13.46;100.00;96415.22;5068089;28;20023;-76
2024/01/18 04:29:41;;;;;;;4.07;1.73;;;;;;;13.56;100.00;96405.31;5072881;28;20547;-76
2024/01/18 04:32:07;;;;;;;2.65;2.00;;;;;;;13.61;100.00;96390.59;5078771;28;20027;-75
2024/01/18 04:34:33;;;;;;;1.40;1.08;;;;;;;13.74;100.00;96405.47;5096372;28;20019;-76
2024/01/18 04:36:59;;;;;;;2.05;1.25;;;;;;;13.81;100.00;96414.63;5079160;28;20397;-77
2024/01/18 04:39:24;;;;;;;2.15;1.23;;;;;;;13.89;100.00;96427.38;5078997;28;20042;-75
2024/01/18 04:41:50;;;;;;;3.53;1.70;;;;;;;13.95;100.00;96413.34;5099119;28;20019;-79
2024/01/18 04:44:16;;;;;;;4.00;1.85;;;;;;;13.98;100.00;96437.25;5079228;28;20016;-79
2024/01/18 04:46:41;;;;;;;4.38;2.17;;;;;;;13.99;100.00;96430.91;5078191;28;20024;-75
2024/01/18 04:49:07;;;;;;;2.50;1.90;;;;;;;14.05;100.00;96438.41;5078136;28;20034;-77
2024/01/18 04:51:33;;;;;;;3.88;2.10;;;;;;;14.16;100.00;96440.91;5078285;28;20070;-76
2024/01/18 04:53:59;;;;;;;2.67;1.40;;;;;;;14.08;100.00;96438.09;5113886;28;20414;-76
2024/01/18 04:56:24;;;;;;;2.17;1.73;;;;;;;14.11;100.00;96427.06;5078406;28;20103;-76
2024/01/18 04:58:50;;;;;;;1.85;1.65;;;;;;;14.08;100.00;96428.22;5109930;28;20463;-76
2024/01/18 05:01:16;;;;;;;1.83;1.27;;;;;;;14.09;100.00;96419.13;5078428;28;20482;-77
2024/01/18 05:03:41;;;;;;;4.13;2.05;;;;;;;14.11;100.00;96416.31;5095729;28;20023;-77
2024/01/18 05:06:09;;;;;;;2.80;1.67;;;;;;;14.14;100.00;96421.41;5095149;28;20024;-78
2024/01/18 05:08:34;;;;;;;4.53;1.55;;;;;;;14.15;100.00;96433.00;5078300;28;20036;-78
2024/01/18 05:11:00;;;;;;;2.67;1.85;;;;;;;14.19;100.00;96437.94;5095040;28;20028;-77
2024/01/18 05:13:26;;;;;;;4.95;2.58;;;;;;;14.20;100.00;96425.34;5094954;28;20486;-79
2024/01/18 05:15:52;;;;;;;5.28;2.45;;;;;;;14.16;100.00;96432.84;5113238;28;20024;-77
2024/01/18 05:18:18;;;;;;;4.97;2.13;;;;;;;14.08;100.00;96421.97;5076851;28;20024;-77
2024/01/18 05:20:44;;;;;;;4.07;1.88;;;;;;;14.12;100.00;96440.34;5075571;28;20037;-76
2024/01/18 05:23:09;;;;;;;3.08;1.90;;;;;;;14.09;100.00;96429.03;5075610;28;20027;-77
2024/01/18 05:25:35;;;;;;;2.13;1.33;;;;;;;14.13;100.00;96442.06;5076170;28;20080;-74
2024/01/18 05:28:01;;;;;;;5.72;2.03;;;;;;;14.13;100.00;96425.06;5073618;28;20020;-75
2024/01/18 05:30:27;;;;;;;4.95;2.30;;;;;;;14.09;100.00;96445.16;5077562;28;20042;-76
2024/01/18 05:32:52;;;;;;;2.97;2.15;;;;;;;14.03;100.00;96424.22;5066078;28;20024;-76
2024/01/18 05:35:18;;;;;;;6.40;3.90;;;;;;;14.06;100.00;96419.41;5077715;28;20107;-74
2024/01/18 05:37:45;;;;;;;3.92;2.22;;;;;;;14.03;100.00;96440.34;5077557;28;20023;-75
2024/01/18 05:40:11;;;;;;;2.58;1.77;;;;;;;14.04;100.00;96432.16;5079127;28;20032;-76
2024/01/18 05:42:36;;;;;;;2.08;1.60;;;;;;;14.08;100.00;96412.06;5088842;28;20027;-74
2024/01/18 05:45:02;;;;;;;4.95;2.63;;;;;;;14.20;100.00;96414.59;5090850;28;20103;-76
2024/01/18 05:47:28;;;;;;;8.70;5.35;;;;;;;14.20;100.00;96423.50;5090295;28;20042;-75
2024/01/18 05:49:53;;;;;;;5.85;2.80;;;;;;;14.17;100.00;96421.09;5069271;28;20504;-75
2024/01/18 05:52:19;;;;;;;3.28;2.30;;;;;;;14.24;100.00;96422.22;5090181;28;20026;-75
2024/01/18 05:54:45;;;;;;;5.43;3.00;;;;;;;14.17;100.00;96421.09;5090328;28;20038;-75
2024/01/18 05:57:10;;;;;;;3.00;1.80;;;;;;;14.26;100.00;96422.94;5079676;28;20027;-75
2024/01/18 05:59:36;;;;;;;4.70;1.85;;;;;;;14.34;100.00;96417.69;5075493;28;20028;-76
2024/01/18 06:02:03;;;;;;;6.05;2.90;;;;;;;14.29;100.00;96417.25;5081615;28;20020;-76
2024/01/18 06:04:30;;;;;;;2.83;1.95;;;;;;;14.32;100.00;96392.75;5103725;28;20035;-76
2024/01/18 06:06:56;;;;;;;5.95;2.83;;;;;;;14.25;100.00;96390.78;5069226;28;20066;-75
2024/01/18 06:09:22;;;;;;;4.93;2.15;;;;;;;14.31;100.00;96409.88;5077556;28;20031;-75
2024/01/18 06:11:48;;;;;;;2.75;2.17;;;;;;;14.31;100.00;96382.13;5085453;28;20120;-75
2024/01/18 06:14:15;;;;;;;5.03;2.78;;;;;;;14.32;100.00;96387.38;5101862;28;20031;-76
2024/01/18 06:16:41;;;;;;;5.63;2.15;;;;;;;14.41;100.00;96385.66;5081365;28;20067;-75
2024/01/18 06:19:07;;;;;;;4.35;2.20;;;;;;;14.40;100.00;96383.97;5085121;28;20341;-75
2024/01/18 06:21:32;;;;;;;7.85;4.18;;;;;;;14.45;100.00;96393.31;5089585;28;20039;-75
2024/01/18 06:23:58;;;;;;;3.25;2.10;;;;;;;14.50;100.00;96380.25;5081862;28;20068;-74
2024/01/18 06:26:24;;;;;;;5.35;2.72;;;;;;;14.50;100.00;96361.41;5093092;28;20024;-74
2024/01/18 06:28:49;;;;;;;4.22;2.22;;;;;;;14.52;100.00;96370.19;5081121;28;20031;-75
2024/01/18 06:31:15;;;;;;;3.88;2.28;;;;;;;14.48;100.00;96370.66;5109841;28;20070;-75
2024/01/18 06:33:41;;;;;;;5.78;2.38;;;;;;;14.45;100.00;96377.16;5084120;28;20031;-75
2024/01/18 06:36:12;;;;;;;9.00;3.47;;;;;;;14.45;100.00;96366.41;5076702;28;20034;-74
2024/01/18 06:38:37;;;;;;;3.35;1.95;;;;;;;14.47;100.00;96379.69;5094070;28;20054;-76
2024/01/18 06:41:04;;;;;;;6.55;2.42;;;;;;;14.35;100.00;96362.91;5082246;28;20016;-75
2024/01/18 06:43:29;;;;;;;3.67;2.25;;;;;;;14.30;100.00;96381.31;5082259;28;20153;-75
2024/01/18 06:45:56;;;;;;;4.05;2.47;;;;;;;14.28;100.00;96359.06;5100667;28;20491;-75
2024/01/18 06:48:25;;;;;;;6.65;2.50;;;;;;;14.35;100.00;96353.97;5082826;28;20019;-75
2024/01/18 06:50:51;;;;;;;3.15;1.67;;;;;;;14.39;100.00;96350.88;5104863;28;20418;-74
2024/01/18 06:53:17;;;;;;;5.05;2.22;;;;;;;14.40;100.00;96370.50;5065064;28;20034;-75
2024/01/18 06:55:43;;;;;;;2.38;1.70;;;;;;;14.38;100.00;96372.50;5106376;28;20052;-75
2024/01/18 06:58:09;;;;;;;3.03;2.20;;;;;;;14.33;100.00;96378.34;5075928;28;20035;-75
2024/01/18 07:00:34;;;;;;;3.80;1.92;;;;;;;14.31;100.00;96355.22;5086850;28;20016;-75
2024/01/18 07:03:00;;;;;;;4.38;2.90;;;;;;;14.26;100.00;96374.50;5082598;28;20043;-77
2024/01/18 07:05:26;;;;;;;5.28;2.33;;;;;;;14.17;100.00;96367.31;5087677;28;20024;-74
2024/01/18 07:07:51;;;;;;;3.67;2.17;;;;;;;14.27;100.00;96383.44;5067425;28;20024;-76
2024/01/18 07:10:17;;;;;;;5.28;2.97;;;;;;;14.24;100.00;96344.22;5088746;28;20403;-74
2024/01/18 07:12:44;;;;;;;7.20;1.70;;;;;;;14.33;100.00;96372.97;5093008;28;20111;-76
2024/01/18 07:15:10;;;;;;;4.13;2.45;;;;;;;14.33;100.00;96364.06;5084890;28;20096;-75
2024/01/18 07:17:35;;;;;;;2.75;1.60;;;;;;;14.35;100.00;96344.06;5073196;28;20484;-75
2024/01/18 07:20:02;;;;;;;2.05;1.40;;;;;;;14.40;100.00;96367.81;5071105;28;20020;-78
2024/01/18 07:22:28;;;;;;;6.13;2.22;;;;;;;14.36;100.00;96364.59;5087342;28;20371;-75
2024/01/18 07:24:54;;;;;;;5.75;2.33;;;;;;;14.25;100.00;96369.25;5092853;28;20028;-75
2024/01/18 07:27:19;;;;;;;6.10;2.15;;;;;;;14.26;100.00;96385.28;5069816;28;20035;-74
2024/01/18 07:29:45;;;;;;;2.80;2.00;;;;;;;14.13;100.00;96404.41;5084514;28;20039;-75
2024/01/18 07:32:11;;;;;;;2.80;1.90;;;;;;;14.10;100.00;96414.59;5097462;28;20031;-75
2024/01/18 07:34:36;;;;;;;6.22;3.63;;;;;;;14.03;100.00;96416.16;5069732;28;20024;-75
2024/01/18 07:37:03;;;;;;;6.95;3.75;;;;;;;13.94;100.00;96423.25;5104692;28;20110;-76
2024/01/18 07:39:29;;;;;;;7.85;3.35;;;;;;;13.93;100.00;96435.03;5075176;28;20043;-76
2024/01/18 07:41:55;;;;;;;11.25;4.53;;;;;;;13.96;100.00;96436.56;5093357;28;20099;-75
2024/01/18 07:44:20;;;;;;;6.50;2.50;;;;;;;14.03;100.00;96402.72;5101996;28;20102;-76
2024/01/18 07:46:46;;;;;;;5.45;2.95;;;;;;;14.16;100.00;96405.94;5080779;28;20030;-76
2024/01/18 07:49:12;;;;;;;3.53;2.65;;;;;;;14.16;100.00;96381.75;5079793;28;20058;-76
2024/01/18 07:51:37;;;;;;;3.65;2.08;;;;;;;14.24;100.00;96384.56;5097355;28;20554;-75
2024/01/18 07:54:04;;;;;;;4.85;1.85;;;;;;;14.31;100.00;96352.53;5065902;28;20063;-75
2024/01/18 07:56:30;;;;;;;9.77;3.53;;;;;;;14.29;100.00;96335.72;5075845;28;20406;-76
2024/01/18 07:58:55;;;;;;;3.72;2.08;;;;;;;14.31;100.00;96334.56;5085836;28;20552;-76
2024/01/18 08:01:21;;;;;;;5.57;3.15;;;;;;;14.26;100.00;96323.41;5090966;28;20150;-76
2024/01/18 08:03:47;;;;;;;3.67;2.17;;;;;;;14.12;100.00;96351.59;5084811;28;20032;-75
2024/01/18 08:06:13;;;;;;;4.63;2.65;;;;;;;14.07;100.00;96345.84;5093206;28;20047;-76
2024/01/18 08:08:40;;;;;;;6.70;2.10;;;;;;;14.03;100.00;96322.06;5084396;28;20038;-76
2024/01/18 08:11:10;;;;;;;4.85;2.70;;;;;;;14.03;100.00;96338.19;5075267;28;20032;-75
2024/01/18 08:13:35;;;;;;;4.63;2.75;;;;;;;14.05;100.00;96325.47;5074355;28;20056;-76
2024/01/18 08:16:01;;;;;;;4.53;2.10;;;;;;;14.11;100.00;96308.75;5082213;28;20468;-75
2024/01/18 08:18:27;;;;;;;2.60;1.77;;;;;;;14.18;100.00;96342.09;5087929;28;20038;-76
2024/01/18 08:20:52;;;;;;;5.28;2.03;;;;;;;14.39;100.00;96323.09;5080188;28;20027;-75
2024/01/18 08:23:18;;;;;;;3.83;1.52;;;;;;;14.58;100.00;96326.53;5083733;28;20031;-75
2024/01/18 08:25:44;;;;;;;4.13;2.13;;;;;;;15.35;100.00;96326.03;5096937;28;20479;-76
2024/01/18 08:28:13;;;;;;;3.60;1.98;;;;;;;16.60;94.10;96290.53;5087120;28;20039;-75
2024/01/18 08:30:39;;;;;;;5.00;2.00;;;;;;;17.23;85.04;96277.34;5095184;28;20494;-75
2024/01/18 08:33:05;;;;;;;2.88;1.58;;;;;;;17.57;80.89;96263.69;5092271;28;20107;-76
2024/01/18 08:35:31;;;;;;;4.50;2.30;;;;;;;18.33;75.12;96228.88;5088799;28;20550;-74
2024/01/18 08:37:56;;;;;;;2.22;1.58;;;;;;;18.51;70.93;96250.34;5082252;28;20027;-74
2024/01/18 08:40:23;;;;;;;7.13;2.58;;;;;;;18.38;72.21;96245.44;5111725;28;20399;-72
2024/01/18 08:42:49;;;;;;;1.80;1.45;;;;;;;18.58;69.40;96221.53;5078579;28;20491;-72
2024/01/18 08:45:14;;;;;;;4.47;2.20;;;;;;;17.90;73.26;96204.16;5104769;28;20144;-75
2024/01/18 08:47:40;;;;;;;5.57;2.30;;;;;;;18.31;71.91;96235.47;5087407;28;20028;-75
2024/01/18 08:50:06;;;;;;;6.45;2.70;;;;;;;18.93;67.03;96223.69;5097632;28;20024;-75
2024/01/18 08:52:32;;;;;;;4.97;2.33;;;;;;;19.56;63.53;96225.31;5110008;28;20028;-76
2024/01/18 08:54:58;;;;;;;3.47;1.90;;;;;;;19.54;61.28;96230.06;5092666;28;20047;-75
2024/01/18 08:57:23;;;;;;;4.20;2.45;;;;;;;18.18;67.18;96244.16;5077239;28;20514;-74
2024/01/18 08:59:49;;;;;;;3.80;2.22;;;;;;;17.71;72.88;96248.66;5082268;28;20020;-75
2024/01/18 09:02:15;;;;;;;4.18;2.67;;;;;;;17.52;74.84;96247.13;5102930;28;20016;-75
2024/01/18 09:04:40;;;;;;;4.93;3.33;;;;;;;17.26;77.32;96273.44;5076507;28;20024;-75
2024/01/18 09:07:06;;;;;;;5.22;2.42;;;;;;;16.78;81.47;96271.50;5088960;28;20024;-76
2024/01/18 09:09:31;;;;;;;5.03;2.80;;;;;;;16.36;86.26;96267.94;5088154;28;20031;-76
2024/01/18 09:11:57;;;;;;;6.78;3.17;;;;;;;16.19;88.26;96267.88;5097873;28;20107;-76
2024/01/18 09:14:23;;;;;;;1.80;1.63;;;;;;;16.00;90.26;96264.53;5077066;28;20023;-75
2024/01/18 09:16:49;;;;;;;2.65;1.30;;;;;;;15.84;92.46;96253.69;5086715;28;20383;-75
2024/01/18 09:19:15;;;;;;;3.10;2.17;;;;;;;15.77;93.42;96258.84;5068798;28;20060;-76
2024/01/18 09:21:42;;;;;;;4.53;2.42;;;;;;;15.66;94.26;96262.66;5086235;28;20448;-76
2024/01/18 09:24:08;;;;;;;5.05;2.88;;;;;;;15.66;94.87;96262.66;5111876;28;20030;-75
2024/01/18 09:26:33;;;;;;;4.40;2.60;;;;;;;15.62;94.18;96255.03;5102497;28;20099;-75
2024/01/18 09:28:59;;;;;;;9.48;2.92;;;;;;;15.65;94.17;96252.03;5093481;28;20517;-76
2024/01/18 09:31:24;;;;;;;7.00;3.95;;;;;;;15.68;93.97;96249.88;5079069;28;20055;-75
2024/01/18 09:33:50;;;;;;;7.00;3.70;;;;;;;15.65;93.56;96249.34;5111026;28;20027;-75
2024/01/18 09:36:16;;;;;;;4.90;2.80;;;;;;;15.56;94.06;96250.28;5080118;28;20030;-75
2024/01/18 09:38:42;;;;;;;9.30;3.97;;;;;;;15.60;94.91;96251.63;5094331;28;20054;-75
2024/01/18 09:41:08;;;;;;;7.28;3.20;;;;;;;15.59;93.78;96258.91;5074858;28;20043;-76
2024/01/18 09:43:38;;;;;;;4.88;3.15;;;;;;;15.68;92.80;96255.25;5067738;28;20032;-74
2024/01/18 09:46:08;;;;;;;5.03;2.70;;;;;;;15.76;91.70;96251.75;5081965;28;20502;-76
2024/01/18 09:48:37;;;;;;;5.28;2.25;;;;;;;15.83;90.34;96246.59;5082299;28;20036;-75
2024/01/18 09:51:06;;;;;;;4.85;2.72;;;;;;;15.90;90.12;96247.66;5093250;28;20055;-75
2024/01/18 09:53:36;;;;;;;6.85;3.00;;;;;;;15.97;88.98;96240.59;5092861;28;20172;-75
2024/01/18 09:56:29;;;;;;;5.07;3.00;;;;;;;16.33;85.51;96244.00;5064092;28;20028;-75
2024/01/18 09:58:59;;;;;;;4.60;2.17;;;;;;;16.52;82.20;96227.53;5083580;28;20038;-75
2024/01/18 10:01:25;;;;;;;4.40;2.50;;;;;;;16.93;78.31;96223.09;5062358;28;20077;-74
2024/01/18 10:03:51;;;;;;;4.25;2.90;;;;;;;17.20;75.16;96228.19;5068463;28;20108;-75
2024/01/18 10:06:17;;;;;;;10.20;2.50;;;;;;;17.27;73.95;96202.19;5084105;28;20134;-76
2024/01/18 10:08:47;;;;;;;10.32;3.20;;;;;;;17.54;72.67;96204.53;5080705;28;20381;-76
2024/01/18 10:11:13;;;;;;;5.40;2.40;;;;;;;17.99;68.31;96190.44;5076832;28;20029;-76
2024/01/18 10:13:48;;;;;;;4.63;2.88;;;;;;;18.39;66.50;96175.91;5081514;28;20476;-74
2024/01/18 10:16:44;;;;;;;6.18;2.92;;;;;;;18.52;64.09;96170.78;5082040;28;20020;-75
2024/01/18 10:19:18;;;;;;;7.40;3.30;;;;;;;18.70;63.27;96165.09;5083416;28;20481;-75
2024/01/18 10:21:46;;;;;;;5.60;2.58;;;;;;;19.24;60.50;96158.59;5087731;28;20019;-75
2024/01/18 10:24:13;;;;;;;3.47;2.35;;;;;;;19.90;57.30;96122.50;5093793;28;20020;-75
2024/01/18 10:26:38;;;;;;;4.45;3.20;;;;;;;19.71;57.50;96125.78;5061607;28;20054;-75
2024/01/18 10:29:06;;;;;;;6.70;3.67;;;;;;;18.99;59.07;96119.16;5059662;28;20052;-74
2024/01/18 10:31:32;;;;;;;10.82;3.83;;;;;;;19.05;59.65;96117.56;5082855;28;20024;-75
2024/01/18 10:33:57;;;;;;;5.63;3.50;;;;;;;19.52;58.15;96104.63;5060714;28;20349;-75
2024/01/18 10:36:23;;;;;;;6.05;3.28;;;;;;;20.18;56.49;96097.41;5089457;28;20106;-76
2024/01/18 10:38:49;;;;;;;3.83;2.42;;;;;;;21.43;52.00;96061.50;5076049;28;20107;-75
2024/01/18 10:41:21;;;;;;;5.15;3.10;;;;;;;22.06;50.22;96074.03;5061406;28;20019;-74
2024/01/18 10:43:51;;;;;;;8.60;2.88;;;;;;;23.06;48.01;96060.53;5092873;28;20043;-76
2024/01/18 10:46:19;;;;;;;7.93;5.07;;;;;;;23.69;46.26;96048.13;5091631;28;20058;-76
2024/01/18 10:48:46;;;;;;;6.40;3.30;;;;;;;24.61;44.45;96034.97;5058278;28;20032;-76
2024/01/18 10:51:12;;;;;;;4.43;2.63;;;;;;;25.07;43.04;96028.41;5073480;28;20031;-76
2024/01/18 10:53:38;;;;;;;5.38;2.58;;;;;;;24.92;43.01;96025.16;5110119;28;22587;-77
2024/01/18 10:56:04;;;;;;;3.22;2.45;;;;;;;24.11;44.04;96031.25;5087391;28;20030;-77
2024/01/18 10:58:30;;;;;;;4.50;2.22;;;;;;;24.41;43.52;96014.28;5083270;28;20444;-75
2024/01/18 11:00:56;;;;;;;5.20;2.80;;;;;;;24.31;42.94;96005.69;5093260;28;20110;-75
2024/01/18 11:03:22;;;;;;;4.80;2.70;;;;;;;23.88;44.10;96013.63;5084259;28;20078;-75
2024/01/18 11:05:49;;;;;;;3.05;1.92;;;;;;;23.96;43.55;96006.03;5092205;28;20483;-76
2024/01/18 11:08:17;;;;;;;3.17;2.40;;;;;;;23.97;44.24;95999.50;5098369;28;20411;-74
2024/01/18 11:10:44;;;;;;;3.20;2.33;;;;;;;24.12;43.51;95991.91;5084662;28;20031;-75
2024/01/18 11:13:10;;;;;;;3.42;2.20;;;;;;;23.79;43.85;95982.13;5086497;28;20031;-75
2024/01/18 11:15:37;;;;;;;5.35;3.42;;;;;;;23.92;44.28;95977.47;5082359;28;20411;-75
2024/01/18 11:18:10;;;;;;;5.80;2.60;;;;;;;24.23;43.32;95955.72;5079191;28;20051;-76
2024/01/18 11:20:57;;;;;;;4.43;1.73;;;;;;;24.39;43.02;95961.72;5075451;28;20028;-75
2024/01/18 11:23:29;;;;;;;2.97;1.95;;;;;;;24.01;43.28;95956.22;5084412;28;20207;-77
2024/01/18 11:25:54;;;;;;;3.45;1.70;;;;;;;22.88;45.04;95938.44;5085150;28;20410;-75